Time;durP1;ratioP1;P1;durP2;ratioP2;P2;SDS_P1;SDS_P2;PMS_P1;PMS_P2;Temp;Humidity;BMP_temperature;BMP_pressure;BME280_temperature;BME280_humidity;BME280_pressure;Samples;Min_cycle;Max_cycle;Signal;HPM_P1;HPM_P2
2023/07/04 00:01:14;;;;;;;;;;;19.10;99.90;;;;;;7340744;19;109448;-70
2023/07/04 00:03:43;;;;;;;;;;;19.20;99.90;;;;;;7344571;19;109833;-69
2023/07/04 00:06:13;;;;;;;;;;;19.10;99.90;;;;;;7336732;19;108737;-70
2023/07/04 00:08:40;;;;;;;;;;;19.10;99.90;;;;;;7337233;19;110783;-70
2023/07/04 00:11:08;;;;;;;;;;;19.10;99.90;;;;;;7339358;19;112394;-69
2023/07/04 00:13:35;;;;;;;;;;;19.10;99.90;;;;;;7337249;19;109370;-69
2023/07/04 00:16:08;;;;;;;;;;;19.10;99.90;;;;;;7336808;19;108987;-67
2023/07/04 00:18:36;;;;;;;;;;;19.00;99.90;;;;;;7337553;19;109355;-67
2023/07/04 00:21:04;;;;;;;;;;;19.00;99.90;;;;;;7336896;19;110021;-69
2023/07/04 00:23:35;;;;;;;;;;;19.00;99.90;;;;;;7339113;19;108922;-71
2023/07/04 00:26:04;;;;;;;;;;;19.00;99.90;;;;;;7338343;19;110145;-67
2023/07/04 00:28:33;;;;;;;;;;;18.90;99.90;;;;;;7335960;19;110722;-68
2023/07/04 00:31:03;;;;;;;;;;;18.90;99.90;;;;;;7336898;19;109672;-67
2023/07/04 00:33:30;;;;;;;;;;;18.90;99.90;;;;;;7333019;19;110469;-67
2023/07/04 00:36:03;;;;;;;;;;;18.90;99.90;;;;;;7339103;19;112517;-70
2023/07/04 00:38:34;;;;;;;;;;;18.80;99.90;;;;;;7339117;19;110212;-68
2023/07/04 00:41:03;;;;;;;;;;;18.90;99.90;;;;;;7339375;19;108644;-68
2023/07/04 00:44:00;;;;;;;;;;;18.80;99.90;;;;;;7336901;19;109507;-70
2023/07/04 00:46:37;;;;;;;;;;;18.80;99.90;;;;;;7340092;19;110460;-71
2023/07/04 00:49:14;;;;;;;;;;;18.80;99.90;;;;;;7336464;19;110013;-68
2023/07/04 00:51:45;;;;;;;;;;;18.80;99.90;;;;;;7333290;19;110477;-68
2023/07/04 00:54:12;;;;;;;;;;;18.70;99.90;;;;;;7334432;19;108886;-68
2023/07/04 00:56:40;;;;;;;;;;;18.70;99.90;;;;;;7337199;19;111619;-68
2023/07/04 00:59:09;;;;;;;;;;;18.60;99.90;;;;;;7334044;19;109635;-69
2023/07/04 01:01:36;;;;;;;;;;;18.60;99.90;;;;;;7332036;19;109258;-67
2023/07/04 01:04:03;;;;;;;;;;;18.60;99.90;;;;;;7329675;19;109377;-68
2023/07/04 01:06:35;;;;;;;;;;;18.60;99.90;;;;;;7339073;19;109088;-68
2023/07/04 01:09:04;;;;;;;;;;;18.60;99.90;;;;;;7344798;19;113249;-67
2023/07/04 01:11:33;;;;;;;;;;;18.60;99.90;;;;;;7336056;19;109204;-67
2023/07/04 01:14:05;;;;;;;;;;;18.60;99.90;;;;;;7335770;19;108888;-71
2023/07/04 01:16:32;;;;;;;;;;;18.50;99.90;;;;;;7335452;19;109071;-68
2023/07/04 01:18:59;;;;;;;;;;;18.50;99.90;;;;;;7332888;19;109426;-68
2023/07/04 01:21:27;;;;;;;;;;;18.50;99.90;;;;;;7336295;19;108447;-67
2023/07/04 01:24:17;;;;;;;;;;;18.50;99.90;;;;;;7337353;19;108575;-67
2023/07/04 01:26:46;;;;;;;;;;;18.50;99.90;;;;;;7331834;19;109973;-67
2023/07/04 01:29:14;;;;;;;;;;;18.60;99.90;;;;;;7334973;19;110035;-67
2023/07/04 01:31:43;;;;;;;;;;;18.50;99.90;;;;;;7340924;19;108933;-75
2023/07/04 01:34:12;;;;;;;;;;;18.50;99.90;;;;;;7336293;19;108732;-71
2023/07/04 01:36:41;;;;;;;;;;;18.50;99.90;;;;;;7338808;19;108791;-73
2023/07/04 01:39:14;;;;;;;;;;;18.50;99.90;;;;;;7336259;19;110308;-74
2023/07/04 01:41:45;;;;;;;;;;;18.50;99.90;;;;;;7336472;19;109549;-68
2023/07/04 01:44:13;;;;;;;;;;;18.40;99.90;;;;;;7336027;19;112973;-72
2023/07/04 01:46:40;;;;;;;;;;;18.40;99.90;;;;;;7335459;19;109265;-74
2023/07/04 01:49:09;;;;;;;;;;;18.40;99.90;;;;;;7334475;19;108987;-68
2023/07/04 01:51:37;;;;;;;;;;;18.40;99.90;;;;;;7334879;19;108557;-70
2023/07/04 01:54:05;;;;;;;;;;;18.40;99.90;;;;;;7335065;19;109221;-67
2023/07/04 01:56:37;;;;;;;;;;;18.30;99.90;;;;;;7325180;19;119586;-67
2023/07/04 01:59:07;;;;;;;;;;;18.30;99.90;;;;;;7331181;19;110437;-69
2023/07/04 02:01:34;;;;;;;;;;;18.30;99.90;;;;;;7334387;19;108510;-68
2023/07/04 02:04:04;;;;;;;;;;;18.20;99.90;;;;;;7342054;19;108562;-87
2023/07/04 02:06:31;;;;;;;;;;;18.20;99.90;;;;;;7342324;19;110481;-87
2023/07/04 02:08:58;;;;;;;;;;;18.10;99.90;;;;;;7337859;19;109736;-86
2023/07/04 02:11:25;;;;;;;;;;;18.10;99.90;;;;;;7338397;19;109318;-87
2023/07/04 02:13:52;;;;;;;;;;;18.10;99.90;;;;;;7338386;19;111198;-87
2023/07/04 02:16:19;;;;;;;;;;;18.10;99.90;;;;;;7345045;19;108611;-86
2023/07/04 02:18:47;;;;;;;;;;;18.00;99.90;;;;;;7337646;19;111007;-87
2023/07/04 02:21:14;;;;;;;;;;;18.00;99.90;;;;;;7341083;19;108361;-87
2023/07/04 02:23:41;;;;;;;;;;;18.00;99.90;;;;;;7339206;19;108635;-86
2023/07/04 02:26:08;;;;;;;;;;;17.90;99.90;;;;;;7338862;19;110464;-86
2023/07/04 02:28:36;;;;;;;;;;;17.90;99.90;;;;;;7338694;19;108328;-86
2023/07/04 02:31:03;;;;;;;;;;;17.80;99.90;;;;;;7334861;19;109597;-87
2023/07/04 02:33:30;;;;;;;;;;;17.90;99.90;;;;;;7334569;19;109779;-86
2023/07/04 02:35:57;;;;;;;;;;;17.80;99.90;;;;;;7333857;19;108683;-86
2023/07/04 02:38:24;;;;;;;;;;;17.90;99.90;;;;;;7338577;19;110931;-86
2023/07/04 02:40:52;;;;;;;;;;;17.80;99.90;;;;;;7333258;19;108593;-85
2023/07/04 02:43:19;;;;;;;;;;;17.90;99.90;;;;;;7334882;19;109641;-87
2023/07/04 02:45:46;;;;;;;;;;;17.90;99.90;;;;;;7332076;19;110190;-86
2023/07/04 02:48:14;;;;;;;;;;;17.80;99.90;;;;;;7334267;19;110422;-86
2023/07/04 02:50:41;;;;;;;;;;;17.80;99.90;;;;;;7329154;19;109465;-87
2023/07/04 02:53:10;;;;;;;;;;;17.80;99.90;;;;;;7334156;19;110289;-87
2023/07/04 02:55:37;;;;;;;;;;;17.90;99.90;;;;;;7330786;19;112089;-87
2023/07/04 02:58:04;;;;;;;;;;;17.80;99.90;;;;;;7338666;19;108869;-86
2023/07/04 03:00:33;;;;;;;;;;;17.80;99.90;;;;;;7327464;19;109244;-87
2023/07/04 03:03:00;;;;;;;;;;;17.80;99.90;;;;;;7333971;19;109242;-86
2023/07/04 03:05:28;;;;;;;;;;;17.80;99.90;;;;;;7334426;19;110673;-87
2023/07/04 03:07:55;;;;;;;;;;;17.80;99.90;;;;;;7335838;19;109693;-86
2023/07/04 03:10:22;;;;;;;;;;;17.80;99.90;;;;;;7337733;19;109410;-88
2023/07/04 03:12:49;;;;;;;;;;;17.70;99.90;;;;;;7340694;19;112573;-86
2023/07/04 03:15:16;;;;;;;;;;;17.80;99.90;;;;;;7335457;19;109152;-86
2023/07/04 03:17:44;;;;;;;;;;;17.80;99.90;;;;;;7342964;19;109368;-87
2023/07/04 03:20:12;;;;;;;;;;;17.70;99.90;;;;;;7345643;19;110237;-86
2023/07/04 03:22:39;;;;;;;;;;;17.70;99.90;;;;;;7338579;19;110067;-87
2023/07/04 03:25:07;;;;;;;;;;;17.70;99.90;;;;;;7339062;19;113478;-88
2023/07/04 03:27:35;;;;;;;;;;;17.70;99.90;;;;;;7338095;19;109622;-89
2023/07/04 03:30:03;;;;;;;;;;;17.70;99.90;;;;;;7340222;19;110452;-85
2023/07/04 03:32:31;;;;;;;;;;;17.70;99.90;;;;;;7336503;19;109494;-87
2023/07/04 03:35:01;;;;;;;;;;;17.60;99.90;;;;;;7337262;19;109303;-87
2023/07/04 03:37:29;;;;;;;;;;;17.60;99.90;;;;;;7339095;19;113217;-86
2023/07/04 03:39:56;;;;;;;;;;;17.60;99.90;;;;;;7341003;19;109471;-86
2023/07/04 03:42:24;;;;;;;;;;;17.60;99.90;;;;;;7344133;19;108786;-87
2023/07/04 03:44:51;;;;;;;;;;;17.60;99.90;;;;;;7340141;19;110593;-87
2023/07/04 03:47:19;;;;;;;;;;;17.50;99.90;;;;;;7335741;19;109607;-88
2023/07/04 03:49:49;;;;;;;;;;;17.50;99.90;;;;;;7337053;19;110223;-87
2023/07/04 03:52:19;;;;;;;;;;;17.50;99.90;;;;;;7336026;19;112652;-87
2023/07/04 03:54:46;;;;;;;;;;;17.50;99.90;;;;;;7343183;19;109270;-86
2023/07/04 03:57:13;;;;;;;;;;;17.40;99.90;;;;;;7335954;19;109977;-86
2023/07/04 03:59:42;;;;;;;;;;;17.50;99.90;;;;;;7336817;19;110418;-87
2023/07/04 04:02:09;;;;;;;;;;;17.40;99.90;;;;;;7336995;19;109029;-86
2023/07/04 04:04:39;;;;;;;;;;;17.40;99.90;;;;;;7344361;19;108796;-87
2023/07/04 04:07:07;;;;;;;;;;;17.40;99.90;;;;;;7337826;19;108511;-87
2023/07/04 04:09:35;;;;;;;;;;;17.30;99.90;;;;;;7339222;19;109160;-86
2023/07/04 04:12:04;;;;;;;;;;;17.30;99.90;;;;;;7335940;19;109897;-85
2023/07/04 04:14:31;;;;;;;;;;;17.30;99.90;;;;;;7340045;19;108608;-86
2023/07/04 04:16:59;;;;;;;;;;;17.30;99.90;;;;;;7337961;19;109519;-87
2023/07/04 04:19:26;;;;;;;;;;;17.30;99.90;;;;;;7338559;19;109456;-86
2023/07/04 04:21:54;;;;;;;;;;;17.30;99.90;;;;;;7335791;19;108831;-85
2023/07/04 04:24:21;;;;;;;;;;;17.30;99.90;;;;;;7340355;19;109403;-87
2023/07/04 04:26:49;;;;;;;;;;;17.30;99.90;;;;;;7342327;19;110428;-85
2023/07/04 04:29:17;;;;;;;;;;;17.30;99.90;;;;;;7336359;19;109357;-87
2023/07/04 04:31:44;;;;;;;;;;;17.30;99.90;;;;;;7339430;19;110177;-86
2023/07/04 04:34:12;;;;;;;;;;;17.30;99.90;;;;;;7333342;19;110414;-88
2023/07/04 04:36:39;;;;;;;;;;;17.30;99.90;;;;;;7339482;19;109528;-87
2023/07/04 04:39:06;;;;;;;;;;;17.30;99.90;;;;;;7334817;19;110333;-87
2023/07/04 04:41:33;;;;;;;;;;;17.30;99.90;;;;;;7336188;19;109479;-87
2023/07/04 04:44:04;;;;;;;;;;;17.30;99.90;;;;;;7335974;19;109131;-87
2023/07/04 04:46:32;;;;;;;;;;;17.30;99.90;;;;;;7333371;19;112251;-86
2023/07/04 04:49:02;;;;;;;;;;;17.30;99.90;;;;;;7344067;19;109235;-88
2023/07/04 04:51:34;;;;;;;;;;;17.30;99.90;;;;;;7335115;19;111730;-86
2023/07/04 04:54:02;;;;;;;;;;;17.30;99.90;;;;;;7336918;19;109730;-85
2023/07/04 04:56:29;;;;;;;;;;;17.30;99.90;;;;;;7339218;19;110076;-86
2023/07/04 04:58:56;;;;;;;;;;;17.30;99.90;;;;;;7334060;19;113596;-87
2023/07/04 05:01:24;;;;;;;;;;;17.30;99.90;;;;;;7338144;19;108489;-86
2023/07/04 05:03:53;;;;;;;;;;;17.40;99.90;;;;;;7335148;19;109595;-87
2023/07/04 05:06:21;;;;;;;;;;;17.40;99.90;;;;;;7335898;19;110465;-86
2023/07/04 05:08:48;;;;;;;;;;;17.40;99.90;;;;;;7343406;19;108555;-88
2023/07/04 05:11:15;;;;;;;;;;;17.40;99.90;;;;;;7333300;19;109777;-87
2023/07/04 05:13:45;;;;;;;;;;;17.40;99.90;;;;;;7336871;19;109044;-87
2023/07/04 05:16:13;;;;;;;;;;;17.40;99.90;;;;;;7338019;19;109315;-86
2023/07/04 05:18:42;;;;;;;;;;;17.50;99.90;;;;;;7335350;19;110367;-85
2023/07/04 05:21:16;;;;;;;;;;;17.50;99.90;;;;;;7336013;19;108889;-86
2023/07/04 05:23:44;;;;;;;;;;;17.50;99.90;;;;;;7338481;19;109160;-87
2023/07/04 05:26:21;;;;;;;;;;;17.60;99.90;;;;;;7336054;19;110416;-86
2023/07/04 05:28:53;;;;;;;;;;;17.60;99.90;;;;;;7337386;19;109422;-87
2023/07/04 05:31:24;;;;;;;;;;;17.70;99.90;;;;;;7343220;19;113090;-85
2023/07/04 05:33:53;;;;;;;;;;;17.70;99.90;;;;;;7335117;19;108851;-86
2023/07/04 05:36:21;;;;;;;;;;;17.70;99.90;;;;;;7337676;19;109675;-85
2023/07/04 05:38:49;;;;;;;;;;;17.70;99.90;;;;;;7338112;19;110816;-85
2023/07/04 05:41:18;;;;;;;;;;;17.70;99.90;;;;;;7334604;19;108957;-85
2023/07/04 05:43:45;;;;;;;;;;;17.80;99.90;;;;;;7337257;19;110055;-86
2023/07/04 05:46:13;;;;;;;;;;;17.90;99.90;;;;;;7333885;19;110243;-84
2023/07/04 05:48:40;;;;;;;;;;;17.90;99.90;;;;;;7335912;19;110402;-85
2023/07/04 05:51:09;;;;;;;;;;;17.90;99.90;;;;;;7333431;19;109282;-84
2023/07/04 05:53:37;;;;;;;;;;;18.00;99.90;;;;;;7342341;19;109450;-85
2023/07/04 05:56:05;;;;;;;;;;;18.00;99.90;;;;;;7333624;19;109385;-85
2023/07/04 05:58:33;;;;;;;;;;;18.10;99.90;;;;;;7339012;19;109329;-86
2023/07/04 06:01:21;;;;;;;;;;;18.10;99.90;;;;;;7333982;19;108915;-85
2023/07/04 06:03:48;;;;;;;;;;;18.10;99.90;;;;;;7335589;19;109738;-85
2023/07/04 06:06:20;;;;;;;;;;;18.20;99.90;;;;;;7334133;19;109368;-84
2023/07/04 06:08:48;;;;;;;;;;;18.30;99.90;;;;;;7337768;19;108585;-84
2023/07/04 06:11:16;;;;;;;;;;;18.30;99.90;;;;;;7334338;19;109084;-86
2023/07/04 06:13:46;;;;;;;;;;;18.40;99.90;;;;;;7335045;19;109758;-87
2023/07/04 06:16:13;;;;;;;;;;;18.40;99.90;;;;;;7341163;19;108665;-88
2023/07/04 06:18:40;;;;;;;;;;;18.40;99.90;;;;;;7336084;19;112615;-87
2023/07/04 06:21:18;;;;;;;;;;;18.50;99.90;;;;;;7336414;19;109612;-86
2023/07/04 06:23:59;;;;;;;;;;;18.50;99.90;;;;;;7334295;19;112705;-87
2023/07/04 06:26:31;;;;;;;;;;;18.60;99.90;;;;;;7332847;19;110116;-88
2023/07/04 06:28:59;;;;;;;;;;;18.60;99.90;;;;;;7335683;19;108862;-88
2023/07/04 06:31:27;;;;;;;;;;;18.70;99.90;;;;;;7334520;19;109159;-86
2023/07/04 06:33:55;;;;;;;;;;;18.80;99.90;;;;;;7335968;19;110598;-86
2023/07/04 06:36:22;;;;;;;;;;;18.90;99.90;;;;;;7337043;19;108487;-87
2023/07/04 06:38:50;;;;;;;;;;;18.90;99.90;;;;;;7344752;19;108498;-87
2023/07/04 06:41:17;;;;;;;;;;;19.00;99.90;;;;;;7334049;19;108783;-87
2023/07/04 06:43:44;;;;;;;;;;;19.00;99.90;;;;;;7334854;19;109184;-86
2023/07/04 06:46:13;;;;;;;;;;;19.00;99.90;;;;;;7333888;19;110754;-87
2023/07/04 06:48:40;;;;;;;;;;;19.10;99.90;;;;;;7336087;19;108877;-86
2023/07/04 06:51:08;;;;;;;;;;;19.10;99.90;;;;;;7335402;19;109846;-87
2023/07/04 06:53:35;;;;;;;;;;;19.10;99.90;;;;;;7334274;19;110193;-88
2023/07/04 06:56:08;;;;;;;;;;;19.20;99.90;;;;;;7333781;19;108645;-87
2023/07/04 06:58:36;;;;;;;;;;;19.20;99.90;;;;;;7339403;19;108504;-87
2023/07/04 07:01:04;;;;;;;;;;;19.30;99.90;;;;;;7335305;19;109986;-88
2023/07/04 07:03:31;;;;;;;;;;;19.30;99.90;;;;;;7331498;19;111556;-87
2023/07/04 07:06:02;;;;;;;;;;;19.40;99.90;;;;;;7332667;19;110086;-87
2023/07/04 07:08:30;;;;;;;;;;;19.40;99.90;;;;;;7333219;19;108909;-86
2023/07/04 07:10:58;;;;;;;;;;;19.50;99.90;;;;;;7334789;19;109025;-86
2023/07/04 07:13:25;;;;;;;;;;;19.50;99.90;;;;;;7334050;19;112750;-87
2023/07/04 07:15:53;;;;;;;;;;;19.50;99.90;;;;;;7333691;19;109326;-86
2023/07/04 07:18:20;;;;;;;;;;;19.60;99.90;;;;;;7331675;19;109406;-86
2023/07/04 07:20:56;;;;;;;;;;;19.60;99.90;;;;;;7336858;19;109628;-87
2023/07/04 07:23:23;;;;;;;;;;;19.60;99.90;;;;;;7336902;19;109466;-90
2023/07/04 07:25:57;;;;;;;;;;;19.70;99.90;;;;;;7338203;19;112828;-90
2023/07/04 07:28:25;;;;;;;;;;;19.70;99.90;;;;;;7335515;19;108483;-89
2023/07/04 07:31:05;;;;;;;;;;;19.70;99.90;;;;;;7337177;19;111322;-89
2023/07/04 07:33:33;;;;;;;;;;;19.80;99.90;;;;;;7338487;19;110263;-92
2023/07/04 07:36:07;;;;;;;;;;;19.80;99.90;;;;;;7336736;19;108340;-90
2023/07/04 07:38:34;;;;;;;;;;;19.90;99.90;;;;;;7337648;19;109199;-90
2023/07/04 07:41:01;;;;;;;;;;;19.90;99.90;;;;;;7337285;19;110298;-89
2023/07/04 07:43:28;;;;;;;;;;;20.00;99.90;;;;;;7342741;19;108300;-88
2023/07/04 07:45:55;;;;;;;;;;;20.00;99.90;;;;;;7334772;19;110319;-89
2023/07/04 07:48:22;;;;;;;;;;;20.00;99.90;;;;;;7333165;19;109405;-88
2023/07/04 07:50:49;;;;;;;;;;;19.90;99.90;;;;;;7334035;19;110791;-89
2023/07/04 07:53:17;;;;;;;;;;;20.10;99.90;;;;;;7335474;19;110471;-90
2023/07/04 07:55:44;;;;;;;;;;;20.10;99.90;;;;;;7335023;19;108774;-90
2023/07/04 07:58:11;;;;;;;;;;;20.10;99.90;;;;;;7339071;19;109793;-90
2023/07/04 08:00:38;;;;;;;;;;;20.20;99.90;;;;;;7342053;19;111828;-89
2023/07/04 08:03:06;;;;;;;;;;;20.30;99.90;;;;;;7338554;19;108559;-89
2023/07/04 08:05:38;;;;;;;;;;;20.40;99.90;;;;;;7345188;19;111333;-88
2023/07/04 08:08:05;;;;;;;;;;;20.40;99.90;;;;;;7342408;19;108550;-88
2023/07/04 08:10:35;;;;;;;;;;;20.50;99.90;;;;;;7342433;19;109381;-87
2023/07/04 08:13:03;;;;;;;;;;;20.50;99.90;;;;;;7341472;19;110263;-89
2023/07/04 08:15:30;;;;;;;;;;;20.60;99.90;;;;;;7336758;19;109033;-87
2023/07/04 08:18:08;;;;;;;;;;;20.60;99.90;;;;;;7337422;19;111519;-89
2023/07/04 08:20:36;;;;;;;;;;;20.70;99.90;;;;;;7340578;19;111532;-90
2023/07/04 08:23:03;;;;;;;;;;;20.70;99.90;;;;;;7339562;19;108840;-88
2023/07/04 08:25:30;;;;;;;;;;;20.70;99.90;;;;;;7342413;19;109365;-87
2023/07/04 08:27:57;;;;;;;;;;;20.70;99.90;;;;;;7347749;19;110542;-89
2023/07/04 08:30:24;;;;;;;;;;;20.80;99.90;;;;;;7338908;19;108969;-88
2023/07/04 08:32:53;;;;;;;;;;;20.80;99.90;;;;;;7336895;19;112488;-90
2023/07/04 08:35:20;;;;;;;;;;;20.90;99.90;;;;;;7342105;19;108308;-89
2023/07/04 08:37:47;;;;;;;;;;;20.90;99.90;;;;;;7339454;19;109084;-89
2023/07/04 08:40:15;;;;;;;;;;;21.00;99.90;;;;;;7342650;19;110391;-89
2023/07/04 08:42:43;;;;;;;;;;;21.00;99.90;;;;;;7339256;19;109026;-87
2023/07/04 08:45:12;;;;;;;;;;;21.10;99.90;;;;;;7339551;19;109057;-88
2023/07/04 08:47:40;;;;;;;;;;;21.20;99.90;;;;;;7338789;19;110789;-88
2023/07/04 08:50:18;;;;;;;;;;;21.20;99.90;;;;;;7343707;19;109000;-88
2023/07/04 08:52:53;;;;;;;;;;;21.30;99.90;;;;;;7338801;19;110308;-88
2023/07/04 08:55:22;;;;;;;;;;;21.30;99.90;;;;;;7340333;19;108882;-87
2023/07/04 08:57:53;;;;;;;;;;;21.40;99.90;;;;;;7339905;19;108840;-89
2023/07/04 09:00:28;;;;;;;;;;;21.50;99.90;;;;;;7337363;19;110358;-87
2023/07/04 09:03:14;;;;;;;;;;;21.60;99.90;;;;;;7340840;19;108618;-90
2023/07/04 09:05:56;;;;;;;;;;;21.60;99.90;;;;;;7339855;19;110061;-91
2023/07/04 09:08:23;;;;;;;;;;;21.70;99.90;;;;;;7339619;19;113364;-89
2023/07/04 09:10:54;;;;;;;;;;;21.60;99.90;;;;;;7344496;19;109946;-90
2023/07/04 09:13:32;;;;;;;;;;;21.70;99.90;;;;;;7336438;19;110482;-89
2023/07/04 09:16:05;;;;;;;;;;;21.70;99.90;;;;;;7336992;19;108837;-90
2023/07/04 09:18:38;;;;;;;;;;;21.90;99.90;;;;;;7345189;19;110265;-91
2023/07/04 09:21:06;;;;;;;;;;;21.90;99.90;;;;;;7342776;19;111070;-93
2023/07/04 09:23:33;;;;;;;;;;;21.90;99.90;;;;;;7340789;19;109588;-91
2023/07/04 09:26:00;;;;;;;;;;;21.80;99.90;;;;;;7340070;19;109277;-91
2023/07/04 09:28:28;;;;;;;;;;;21.80;99.90;;;;;;7341932;19;112677;-91
2023/07/04 09:30:58;;;;;;;;;;;21.80;99.90;;;;;;7340632;19;108679;-88
2023/07/04 09:33:27;;;;;;;;;;;21.90;99.90;;;;;;7345828;19;112657;-90
2023/07/04 09:35:57;;;;;;;;;;;22.10;99.90;;;;;;7338184;19;108892;-88
2023/07/04 09:38:24;;;;;;;;;;;22.20;99.90;;;;;;7340714;19;108567;-90
2023/07/04 09:40:54;;;;;;;;;;;22.20;99.90;;;;;;7337191;19;113144;-90
2023/07/04 09:43:30;;;;;;;;;;;22.10;99.90;;;;;;7335486;19;110859;-71
2023/07/04 09:46:15;;;;;;;;;;;22.20;99.90;;;;;;7337057;19;108495;-71
2023/07/04 09:48:43;;;;;;;;;;;22.20;99.90;;;;;;7336294;19;110299;-71
2023/07/04 09:51:23;;;;;;;;;;;22.30;99.90;;;;;;7336055;19;109257;-71
2023/07/04 09:54:06;;;;;;;;;;;22.40;99.90;;;;;;7334929;19;109970;-71
2023/07/04 09:56:34;;;;;;;;;;;22.40;99.90;;;;;;7340086;19;109306;-72
2023/07/04 09:59:09;;;;;;;;;;;22.30;99.70;;;;;;7335700;19;108995;-72
2023/07/04 10:01:40;;;;;;;;;;;22.30;99.50;;;;;;7335473;19;112993;-71
2023/07/04 10:04:08;;;;;;;;;;;22.30;99.70;;;;;;7334582;19;113115;-72
2023/07/04 10:06:38;;;;;;;;;;;22.40;99.60;;;;;;7337176;19;108678;-71
2023/07/04 10:09:11;;;;;;;;;;;22.50;99.50;;;;;;7334792;19;109106;-71
2023/07/04 10:11:41;;;;;;;;;;;22.50;99.40;;;;;;7334850;19;109393;-71
2023/07/04 10:14:13;;;;;;;;;;;22.50;99.80;;;;;;7333551;19;109385;-71
2023/07/04 10:16:48;;;;;;;;;;;22.70;99.30;;;;;;7334005;19;109744;-71
2023/07/04 10:19:18;;;;;;;;;;;22.70;98.70;;;;;;7338903;19;108534;-71
2023/07/04 10:21:51;;;;;;;;;;;22.70;98.80;;;;;;7335876;19;109391;-71
2023/07/04 10:24:19;;;;;;;;;;;22.80;99.20;;;;;;7332893;19;109998;-71
2023/07/04 10:27:10;;;;;;;;;;;23.00;98.90;;;;;;7334145;19;113167;-72
2023/07/04 10:29:48;;;;;;;;;;;23.10;98.60;;;;;;7334805;19;110101;-73
2023/07/04 10:32:16;;;;;;;;;;;23.20;98.50;;;;;;7332237;19;108414;-72
2023/07/04 10:34:45;;;;;;;;;;;23.20;98.50;;;;;;7335163;19;108764;-73
2023/07/04 10:37:23;;;;;;;;;;;23.40;98.80;;;;;;7334578;19;111227;-73
2023/07/04 10:39:52;;;;;;;;;;;23.50;98.70;;;;;;7335992;19;108302;-73
2023/07/04 10:42:38;;;;;;;;;;;23.60;98.10;;;;;;7339115;19;108946;-73
2023/07/04 10:45:06;;;;;;;;;;;23.70;97.60;;;;;;7334909;19;108580;-72
2023/07/04 10:47:37;;;;;;;;;;;23.80;96.60;;;;;;7335630;19;108797;-73
2023/07/04 10:50:08;;;;;;;;;;;23.70;96.60;;;;;;7334416;19;109031;-74
2023/07/04 10:52:36;;;;;;;;;;;23.70;96.70;;;;;;7333984;19;108926;-72
2023/07/04 10:55:03;;;;;;;;;;;23.70;96.80;;;;;;7334238;19;108912;-73
2023/07/04 10:57:32;;;;;;;;;;;23.70;96.80;;;;;;7331566;19;109911;-71
2023/07/04 11:00:14;;;;;;;;;;;23.80;97.00;;;;;;7331981;19;110540;-71
2023/07/04 11:02:46;;;;;;;;;;;23.90;97.10;;;;;;7333329;19;109721;-72
2023/07/04 11:05:15;;;;;;;;;;;24.10;96.90;;;;;;7334045;19;110035;-72
2023/07/04 11:07:43;;;;;;;;;;;24.10;96.90;;;;;;7330270;19;109664;-73
2023/07/04 11:10:11;;;;;;;;;;;24.30;97.20;;;;;;7329100;19;109516;-71
2023/07/04 11:12:41;;;;;;;;;;;24.40;97.20;;;;;;7331164;19;109411;-72
2023/07/04 11:15:22;;;;;;;;;;;24.60;97.20;;;;;;7326442;19;109148;-72
2023/07/04 11:17:50;;;;;;;;;;;24.60;96.20;;;;;;7335784;19;109085;-71
2023/07/04 11:20:22;;;;;;;;;;;24.70;96.80;;;;;;7330703;19;108398;-71
2023/07/04 11:22:50;;;;;;;;;;;24.70;96.70;;;;;;7333506;19;109200;-74
2023/07/04 11:25:31;;;;;;;;;;;24.80;96.90;;;;;;7338228;19;110215;-71
2023/07/04 11:28:16;;;;;;;;;;;24.80;96.60;;;;;;7327122;19;110290;-72
2023/07/04 11:30:47;;;;;;;;;;;24.80;96.60;;;;;;7336236;19;113363;-72
2023/07/04 11:33:33;;;;;;;;;;;24.80;96.60;;;;;;7339724;19;108748;-72
2023/07/04 11:36:05;;;;;;;;;;;24.70;96.00;;;;;;7344073;19;110157;-72
2023/07/04 11:38:33;;;;;;;;;;;24.70;96.40;;;;;;7342228;19;110149;-72
2023/07/04 11:41:01;;;;;;;;;;;24.70;96.40;;;;;;7339377;19;108939;-72
2023/07/04 11:43:29;;;;;;;;;;;24.70;95.90;;;;;;7341058;19;108860;-72
2023/07/04 11:45:57;;;;;;;;;;;24.70;96.00;;;;;;7339009;19;109835;-72
2023/07/04 11:48:26;;;;;;;;;;;24.70;95.90;;;;;;7340997;19;108925;-72
2023/07/04 11:50:59;;;;;;;;;;;24.70;95.20;;;;;;7339754;19;109428;-72
2023/07/04 11:53:38;;;;;;;;;;;24.80;96.10;;;;;;7339000;19;109560;-72
2023/07/04 11:56:19;;;;;;;;;;;24.90;96.30;;;;;;7340611;19;108465;-72
2023/07/04 11:58:46;;;;;;;;;;;25.00;96.00;;;;;;7339368;19;110105;-72
2023/07/04 12:01:17;;;;;;;;;;;25.10;96.00;;;;;;7339413;19;108900;-72
2023/07/04 12:03:47;;;;;;;;;;;25.20;95.80;;;;;;7341689;19;109265;-72
2023/07/04 12:06:35;;;;;;;;;;;25.30;95.70;;;;;;7337141;19;109391;-72
2023/07/04 12:09:03;;;;;;;;;;;25.30;95.00;;;;;;7335289;19;109273;-72
2023/07/04 12:11:39;;;;;;;;;;;25.40;95.30;;;;;;7341924;19;108850;-72
2023/07/04 12:14:06;;;;;;;;;;;25.60;95.30;;;;;;7337986;19;108683;-72
2023/07/04 12:16:33;;;;;;;;;;;25.70;95.70;;;;;;7333946;19;109160;-72
2023/07/04 12:19:04;;;;;;;;;;;25.90;95.20;;;;;;7334628;19;110132;-72
2023/07/04 12:21:32;;;;;;;;;;;26.00;95.30;;;;;;7336828;19;109570;-73
2023/07/04 12:24:03;;;;;;;;;;;26.10;95.30;;;;;;7335640;19;108846;-72
2023/07/04 12:26:32;;;;;;;;;;;26.10;94.10;;;;;;7339262;19;110182;-72
2023/07/04 12:29:03;;;;;;;;;;;26.10;93.90;;;;;;7338460;19;108685;-72
2023/07/04 12:31:42;;;;;;;;;;;26.10;94.20;;;;;;7338145;19;108620;-74
2023/07/04 12:34:10;;;;;;;;;;;26.10;94.00;;;;;;7341031;19;110653;-73
2023/07/04 12:36:44;;;;;;;;;;;26.00;93.40;;;;;;7340466;19;110276;-73
2023/07/04 12:39:14;;;;;;;;;;;26.00;93.60;;;;;;7336484;19;110160;-73
2023/07/04 12:41:42;;;;;;;;;;;26.00;93.80;;;;;;7339294;19;108814;-72
2023/07/04 12:44:12;;;;;;;;;;;25.90;93.40;;;;;;7337440;19;108962;-73
2023/07/04 12:46:42;;;;;;;;;;;26.00;93.70;;;;;;7336832;19;108751;-72
2023/07/04 12:49:12;;;;;;;;;;;26.00;92.60;;;;;;7336153;19;109078;-73
2023/07/04 12:51:44;;;;;;;;;;;26.00;92.90;;;;;;7338692;19;109967;-74
2023/07/04 12:54:13;;;;;;;;;;;25.80;92.80;;;;;;7333787;19;110559;-72
2023/07/04 12:56:42;;;;;;;;;;;25.80;92.60;;;;;;7341323;19;109673;-73
2023/07/04 12:59:28;;;;;;;;;;;25.80;92.90;;;;;;7335280;19;111845;-73
2023/07/04 13:01:56;;;;;;;;;;;25.70;93.40;;;;;;7337048;19;108455;-73
2023/07/04 13:04:23;;;;;;;;;;;25.60;93.10;;;;;;7334919;19;109608;-71
2023/07/04 13:06:51;;;;;;;;;;;25.60;93.10;;;;;;7332822;19;110752;-72
2023/07/04 13:09:19;;;;;;;;;;;25.70;93.10;;;;;;7327304;19;109497;-73
2023/07/04 13:11:46;;;;;;;;;;;25.90;93.70;;;;;;7328762;19;110070;-73
2023/07/04 13:14:21;;;;;;;;;;;26.00;93.70;;;;;;7328909;19;110480;-73
2023/07/04 13:16:48;;;;;;;;;;;26.20;93.50;;;;;;7327588;19;109861;-73
2023/07/04 13:19:17;;;;;;;;;;;26.40;93.40;;;;;;7333347;19;109128;-74
2023/07/04 13:21:48;;;;;;;;;;;26.50;93.00;;;;;;7329992;19;108940;-73
2023/07/04 13:24:25;;;;;;;;;;;26.60;92.70;;;;;;7329710;19;110611;-73
2023/07/04 13:26:56;;;;;;;;;;;26.70;92.00;;;;;;7328569;19;110500;-73
2023/07/04 13:29:47;;;;;;;;;;;26.70;91.90;;;;;;7329199;19;110604;-73
2023/07/04 13:32:25;;;;;;;;;;;26.70;91.60;;;;;;7330708;19;108842;-73
2023/07/04 13:34:55;;;;;;;;;;;26.60;91.90;;;;;;7328318;19;110069;-74
2023/07/04 13:37:22;;;;;;;;;;;26.70;92.00;;;;;;7327209;19;113653;-73
2023/07/04 13:39:55;;;;;;;;;;;26.70;92.10;;;;;;7332496;19;109993;-73
2023/07/04 13:42:25;;;;;;;;;;;26.70;91.50;;;;;;7331031;19;109100;-74
2023/07/04 13:44:52;;;;;;;;;;;26.70;91.30;;;;;;7328831;19;111288;-73
2023/07/04 13:47:22;;;;;;;;;;;26.70;91.40;;;;;;7326537;19;109370;-73
2023/07/04 13:49:50;;;;;;;;;;;26.70;91.30;;;;;;7326847;19;108528;-73
2023/07/04 13:52:19;;;;;;;;;;;26.70;91.90;;;;;;7328588;19;110273;-73
2023/07/04 13:54:46;;;;;;;;;;;26.80;91.30;;;;;;7329600;19;113470;-73
2023/07/04 13:57:13;;;;;;;;;;;26.90;91.00;;;;;;7328807;19;108936;-72
2023/07/04 13:59:41;;;;;;;;;;;27.00;90.90;;;;;;7326768;19;109385;-73
2023/07/04 14:02:08;;;;;;;;;;;27.10;90.70;;;;;;7330707;19;110115;-72
2023/07/04 14:04:38;;;;;;;;;;;27.30;90.80;;;;;;7330542;19;108545;-73
2023/07/04 14:07:09;;;;;;;;;;;27.30;90.10;;;;;;7326661;19;109614;-73
2023/07/04 14:09:36;;;;;;;;;;;27.30;90.50;;;;;;7327889;19;109021;-73
2023/07/04 14:12:04;;;;;;;;;;;27.40;90.50;;;;;;7325499;19;109721;-72
2023/07/04 14:14:31;;;;;;;;;;;27.50;91.10;;;;;;7328432;19;109330;-73
2023/07/04 14:17:01;;;;;;;;;;;27.60;90.70;;;;;;7325866;19;109654;-72
2023/07/04 14:19:31;;;;;;;;;;;27.70;90.20;;;;;;7328132;19;108689;-73